Time;durP1;ratioP1;P1;durP2;ratioP2;P2;SDS_P1;SDS_P2;PMS_P1;PMS_P2;Temp;Humidity;BMP_temperature;BMP_pressure;BME280_temperature;BME280_humidity;BME280_pressure;Samples;Min_cycle;Max_cycle;Signal;HPM_P1;HPM_P2
2023/03/11 00:00:45;;;;;;;14.57;2.42;;;2.00;95.90;;;;;;4970373;28;20535;-64
2023/03/11 00:03:13;;;;;;;9.10;1.77;;;2.10;94.00;;;;;;4972397;28;20050;-65
2023/03/11 00:05:41;;;;;;;18.98;2.15;;;2.20;90.90;;;;;;4974771;28;20049;-65
2023/03/11 00:08:11;;;;;;;13.13;1.65;;;2.30;87.30;;;;;;4971558;28;20420;-65
2023/03/11 00:10:40;;;;;;;14.90;2.00;;;2.40;90.70;;;;;;4970535;28;20046;-64
2023/03/11 00:13:07;;;;;;;8.73;1.55;;;2.50;80.00;;;;;;4989144;28;20050;-65
2023/03/11 00:15:34;;;;;;;12.35;1.88;;;2.50;76.60;;;;;;5002574;28;20050;-64
2023/03/11 00:18:00;;;;;;;5.00;0.85;;;2.30;76.00;;;;;;4988264;28;20042;-64
2023/03/11 00:20:32;;;;;;;10.02;1.27;;;2.30;70.20;;;;;;4988801;28;20057;-65
2023/03/11 00:22:59;;;;;;;9.75;1.95;;;2.30;74.00;;;;;;4987819;28;20101;-65
2023/03/11 00:25:27;;;;;;;15.25;2.90;;;2.20;74.50;;;;;;4972373;28;20304;-65
2023/03/11 00:27:54;;;;;;;10.93;2.00;;;2.20;77.30;;;;;;4987429;28;20045;-64
2023/03/11 00:30:20;;;;;;;12.07;1.55;;;2.00;75.30;;;;;;4970430;28;20085;-65
2023/03/11 00:32:48;;;;;;;6.35;1.10;;;2.00;68.60;;;;;;4988839;28;20054;-65
2023/03/11 00:35:18;;;;;;;10.98;1.73;;;2.00;72.60;;;;;;4970747;28;20042;-65
2023/03/11 00:37:46;;;;;;;10.73;1.10;;;2.00;71.80;;;;;;4988799;28;20046;-66
2023/03/11 00:40:16;;;;;;;5.90;1.30;;;2.00;72.90;;;;;;4987232;28;20122;-64
2023/03/11 00:42:42;;;;;;;;;;;2.10;66.30;;;;;;4989324;28;20129;-65
2023/03/11 00:45:08;;;;;;;4.82;1.33;;;2.00;71.20;;;;;;4987684;28;20060;-65
2023/03/11 00:47:34;;;;;;;4.95;1.13;;;2.00;69.60;;;;;;4987902;28;20085;-65
2023/03/11 00:50:00;;;;;;;10.18;1.85;;;2.00;65.30;;;;;;4984802;28;20086;-65
2023/03/11 00:52:25;;;;;;;8.40;1.17;;;2.00;63.00;;;;;;4986900;28;20551;-65
2023/03/11 00:54:51;;;;;;;13.15;1.67;;;2.00;67.20;;;;;;4988703;28;20058;-65
2023/03/11 00:57:17;;;;;;;7.40;1.33;;;2.00;70.50;;;;;;4998652;28;20031;-65
2023/03/11 00:59:42;;;;;;;6.10;0.93;;;1.90;71.20;;;;;;4988705;28;20054;-65
2023/03/11 01:02:08;;;;;;;6.22;1.23;;;1.90;72.30;;;;;;4985792;28;20034;-65
2023/03/11 01:04:34;;;;;;;5.22;1.17;;;1.90;68.10;;;;;;4970896;28;20481;-64
2023/03/11 01:06:59;;;;;;;5.22;1.02;;;1.80;66.60;;;;;;4987303;28;20224;-65
2023/03/11 01:09:25;;;;;;;3.70;0.80;;;1.80;63.30;;;;;;4997641;28;20046;-65
2023/03/11 01:11:51;;;;;;;5.65;1.00;;;1.80;66.20;;;;;;4979295;28;20423;-65
2023/03/11 01:14:17;;;;;;;3.88;0.70;;;1.80;64.90;;;;;;4991810;28;20054;-65
2023/03/11 01:16:43;;;;;;;5.45;1.33;;;1.90;67.40;;;;;;4989198;28;20512;-65
2023/03/11 01:19:09;;;;;;;5.97;1.02;;;2.00;65.20;;;;;;4987198;28;20039;-65
2023/03/11 01:21:34;;;;;;;7.15;1.05;;;2.00;60.80;;;;;;4987951;28;20046;-65
2023/03/11 01:24:00;;;;;;;8.85;1.23;;;2.10;60.30;;;;;;4987678;28;20034;-64
2023/03/11 01:26:26;;;;;;;9.73;1.73;;;2.20;63.40;;;;;;4988127;28;20400;-65
2023/03/11 01:28:51;;;;;;;10.88;1.63;;;2.20;62.50;;;;;;4990062;28;20143;-65
2023/03/11 01:31:17;;;;;;;9.98;1.10;;;2.20;62.50;;;;;;4995056;28;20117;-65
2023/03/11 01:33:43;;;;;;;6.25;0.90;;;2.30;58.60;;;;;;4988183;28;20073;-65
2023/03/11 01:36:08;;;;;;;7.55;1.38;;;2.40;58.70;;;;;;4987037;28;20047;-65
2023/03/11 01:38:34;;;;;;;6.35;1.10;;;2.20;53.90;;;;;;4971589;28;20054;-65
2023/03/11 01:41:00;;;;;;;7.28;1.20;;;2.30;48.20;;;;;;4989656;28;20489;-65
2023/03/11 01:43:39;;;;;;;8.00;1.23;;;2.30;54.00;;;;;;4973864;28;20326;-65
2023/03/11 01:46:14;;;;;;;5.70;1.10;;;2.20;53.40;;;;;;4992033;28;20050;-65
2023/03/11 01:48:51;;;;;;;9.90;1.10;;;2.10;48.30;;;;;;4989718;28;20054;-65
2023/03/11 01:51:27;;;;;;;4.22;0.55;;;2.00;49.80;;;;;;4974552;28;20050;-65
2023/03/11 01:53:54;;;;;;;2.35;0.70;;;2.00;47.60;;;;;;5003607;28;20370;-65
2023/03/11 01:56:20;;;;;;;7.38;0.80;;;2.00;42.20;;;;;;4991385;28;20481;-65
2023/03/11 01:58:50;;;;;;;3.72;0.75;;;2.00;49.50;;;;;;4973334;28;20500;-65
2023/03/11 02:01:17;;;;;;;8.00;0.70;;;1.90;44.50;;;;;;4991967;28;20046;-65
2023/03/11 02:03:43;;;;;;;6.60;1.05;;;1.90;43.20;;;;;;4975048;28;20046;-65
2023/03/11 02:06:13;;;;;;;4.30;1.45;;;1.80;53.60;;;;;;4978967;28;20046;-65
2023/03/11 02:08:40;;;;;;;7.20;1.10;;;1.80;53.50;;;;;;4998086;28;20049;-65
2023/03/11 02:11:08;;;;;;;4.80;1.02;;;1.80;56.30;;;;;;4986282;28;20043;-65
2023/03/11 02:13:35;;;;;;;8.32;1.13;;;1.70;55.50;;;;;;4997529;28;20042;-65
2023/03/11 02:16:03;;;;;;;3.33;0.88;;;1.80;59.10;;;;;;4993842;28;20497;-65
2023/03/11 02:18:29;;;;;;;6.30;1.27;;;1.80;61.40;;;;;;4981951;28;20072;-65
2023/03/11 02:21:07;;;;;;;4.97;0.98;;;1.80;62.60;;;;;;4992380;28;20046;-65
2023/03/11 02:23:54;;;;;;;2.88;0.57;;;1.70;62.50;;;;;;4973591;28;20436;-65
2023/03/11 02:26:54;;;;;;;3.90;0.80;;;1.70;60.90;;;;;;4976502;28;20034;-65
2023/03/11 02:29:21;;;;;;;5.90;0.90;;;1.70;60.20;;;;;;4978710;28;20054;-65
2023/03/11 02:31:48;;;;;;;10.43;1.08;;;1.70;61.30;;;;;;4956821;28;20046;-65
2023/03/11 02:34:30;;;;;;;5.95;0.70;;;1.80;60.10;;;;;;4981284;28;20057;-65
2023/03/11 02:36:56;;;;;;;4.85;0.80;;;1.80;52.80;;;;;;4972085;28;20134;-65
2023/03/11 02:39:35;;;;;;;3.72;0.65;;;1.90;48.10;;;;;;4990579;28;20049;-65
2023/03/11 02:42:09;;;;;;;6.05;1.35;;;2.00;49.50;;;;;;4997334;28;20404;-65
2023/03/11 02:44:36;;;;;;;7.85;0.52;;;2.10;50.30;;;;;;4990296;28;20054;-65
2023/03/11 02:47:02;;;;;;;5.10;0.60;;;2.10;51.40;;;;;;4994377;28;20089;-65
2023/03/11 02:49:30;;;;;;;9.07;0.98;;;2.00;51.90;;;;;;4988637;28;20316;-65
2023/03/11 02:51:55;;;;;;;6.82;0.93;;;1.90;54.60;;;;;;5007509;28;20044;-65
2023/03/11 02:54:21;;;;;;;3.97;0.70;;;1.90;51.80;;;;;;4985737;28;20046;-65
2023/03/11 02:56:47;;;;;;;7.00;0.65;;;1.90;48.80;;;;;;4996417;28;20057;-64
2023/03/11 02:59:12;;;;;;;7.60;1.30;;;1.90;44.10;;;;;;4997678;28;20132;-65
2023/03/11 03:01:38;;;;;;;7.72;0.95;;;1.90;43.60;;;;;;4995108;28;20125;-65
2023/03/11 03:04:04;;;;;;;2.35;0.85;;;1.90;43.10;;;;;;4985571;28;20049;-65
2023/03/11 03:06:29;;;;;;;7.43;0.73;;;1.90;41.20;;;;;;4986645;28;20065;-65
2023/03/11 03:08:55;;;;;;;5.80;0.77;;;1.80;42.20;;;;;;4980425;28;20455;-65
2023/03/11 03:11:21;;;;;;;4.93;0.88;;;1.80;45.70;;;;;;4984617;28;20042;-65
2023/03/11 03:13:47;;;;;;;6.60;0.80;;;1.80;48.00;;;;;;5000961;28;20068;-65
2023/03/11 03:16:12;;;;;;;7.18;0.77;;;1.70;48.40;;;;;;4971742;28;20492;-65
2023/03/11 03:18:38;;;;;;;9.48;0.77;;;1.70;48.60;;;;;;4989900;28;20116;-65
2023/03/11 03:21:04;;;;;;;4.65;1.13;;;1.70;47.10;;;;;;4986210;28;20523;-65
2023/03/11 03:23:34;;;;;;;10.43;0.93;;;1.70;52.00;;;;;;4977718;28;20070;-64
2023/03/11 03:26:00;;;;;;;6.50;1.02;;;1.80;54.90;;;;;;4991158;28;20046;-65
2023/03/11 03:28:26;;;;;;;11.45;1.83;;;1.80;54.70;;;;;;4971362;28;20046;-65
2023/03/11 03:30:52;;;;;;;6.75;0.90;;;1.80;58.00;;;;;;4965912;28;20053;-65
2023/03/11 03:33:18;;;;;;;8.90;1.00;;;1.80;56.40;;;;;;4988755;28;20050;-65
2023/03/11 03:35:45;;;;;;;4.82;0.80;;;1.80;59.10;;;;;;4973202;28;20046;-65
2023/03/11 03:38:12;;;;;;;7.32;1.40;;;1.70;61.70;;;;;;4989622;28;20038;-64
2023/03/11 03:40:38;;;;;;;3.75;0.80;;;1.70;65.00;;;;;;4988802;28;20133;-64
2023/03/11 03:43:04;;;;;;;6.25;0.93;;;1.80;64.60;;;;;;4989869;28;20039;-64
2023/03/11 03:45:30;;;;;;;10.07;1.77;;;1.80;52.40;;;;;;4989245;28;20038;-64
2023/03/11 03:47:56;;;;;;;6.38;1.10;;;1.90;50.50;;;;;;4988805;28;20051;-65
2023/03/11 03:50:22;;;;;;;5.68;0.70;;;1.90;49.80;;;;;;4970699;28;20558;-65
2023/03/11 03:52:48;;;;;;;9.18;1.02;;;1.90;47.70;;;;;;4989808;28;20058;-64
2023/03/11 03:55:14;;;;;;;10.13;1.13;;;1.90;47.30;;;;;;4986591;28;20457;-64
2023/03/11 03:57:39;;;;;;;8.85;0.90;;;2.10;49.50;;;;;;4991019;28;20046;-64
2023/03/11 04:00:09;;;;;;;7.47;0.98;;;2.00;47.00;;;;;;4993829;28;20046;-64
2023/03/11 04:02:34;;;;;;;5.57;0.63;;;2.00;43.70;;;;;;4987436;28;20050;-64
2023/03/11 04:05:00;;;;;;;9.15;1.10;;;2.00;39.80;;;;;;4989595;28;20120;-64
2023/03/11 04:07:26;;;;;;;3.45;0.60;;;2.00;44.60;;;;;;4999982;28;20080;-64
2023/03/11 04:09:52;;;;;;;5.13;0.95;;;2.00;44.70;;;;;;4989241;28;20085;-64
2023/03/11 04:12:17;;;;;;;6.28;1.20;;;1.90;48.30;;;;;;4954902;28;20054;-64
2023/03/11 04:14:43;;;;;;;8.82;1.08;;;1.90;46.70;;;;;;4988342;28;20578;-64
2023/03/11 04:17:11;;;;;;;5.22;0.70;;;1.90;47.70;;;;;;4989847;28;20153;-64
2023/03/11 04:19:37;;;;;;;6.53;1.20;;;2.00;47.00;;;;;;4987231;28;20417;-64
2023/03/11 04:22:03;;;;;;;3.50;0.90;;;2.10;50.80;;;;;;4989609;28;20042;-64
2023/03/11 04:24:29;;;;;;;9.35;0.90;;;2.10;49.60;;;;;;4987448;28;20053;-64
2023/03/11 04:26:55;;;;;;;5.18;0.90;;;2.10;50.10;;;;;;4979053;28;20042;-64
2023/03/11 04:29:20;;;;;;;9.45;1.10;;;2.10;49.50;;;;;;4992202;28;20074;-64
2023/03/11 04:31:46;;;;;;;4.43;0.80;;;2.20;46.30;;;;;;4988933;28;20177;-64
2023/03/11 04:34:12;;;;;;;8.95;0.93;;;2.20;47.70;;;;;;4988117;28;20058;-64
2023/03/11 04:36:37;;;;;;;2.58;0.70;;;2.20;48.00;;;;;;4988013;28;20074;-64
2023/03/11 04:39:03;;;;;;;4.95;0.90;;;2.20;48.10;;;;;;4980835;28;20105;-64
2023/03/11 04:41:29;;;;;;;10.68;0.90;;;2.10;52.50;;;;;;4987274;28;20065;-64
2023/03/11 04:43:55;;;;;;;8.88;0.90;;;2.00;52.80;;;;;;4988594;28;20402;-64
2023/03/11 04:46:21;;;;;;;13.82;1.52;;;1.90;53.80;;;;;;4987116;28;20112;-64
2023/03/11 04:48:46;;;;;;;10.68;1.52;;;1.80;58.50;;;;;;4996847;28;20501;-64
2023/03/11 04:51:13;;;;;;;8.40;0.98;;;1.80;58.90;;;;;;4987655;28;20071;-64
2023/03/11 04:53:38;;;;;;;7.18;0.93;;;1.80;57.60;;;;;;4988277;28;20137;-64
2023/03/11 04:56:04;;;;;;;9.65;1.10;;;1.80;59.60;;;;;;4991240;28;20466;-63
2023/03/11 04:58:30;;;;;;;7.97;0.90;;;1.70;57.00;;;;;;4973001;28;20050;-64
2023/03/11 05:00:56;;;;;;;10.02;0.93;;;1.70;55.80;;;;;;4988324;28;20042;-64
2023/03/11 05:03:21;;;;;;;7.13;1.00;;;1.70;56.30;;;;;;4969435;28;20444;-64
2023/03/11 05:05:47;;;;;;;11.00;1.05;;;1.80;53.90;;;;;;4988598;28;20175;-63
2023/03/11 05:08:13;;;;;;;4.07;0.80;;;1.90;52.80;;;;;;4973352;28;20084;-64
2023/03/11 05:10:41;;;;;;;8.02;1.00;;;1.90;53.10;;;;;;4989663;28;20449;-64
2023/03/11 05:13:07;;;;;;;3.05;0.60;;;1.90;55.40;;;;;;4957939;28;20050;-63
2023/03/11 05:15:33;;;;;;;12.80;0.90;;;1.80;52.20;;;;;;4987589;28;20050;-64
2023/03/11 05:17:58;;;;;;;2.80;1.00;;;1.80;55.10;;;;;;4988280;28;20485;-63
2023/03/11 05:20:24;;;;;;;11.30;0.90;;;1.70;60.50;;;;;;4969722;28;20519;-64
2023/03/11 05:22:50;;;;;;;6.30;1.05;;;1.70;61.90;;;;;;4970594;28;20128;-64
2023/03/11 05:25:16;;;;;;;3.70;0.75;;;1.60;62.30;;;;;;4986822;28;20049;-64
2023/03/11 05:27:43;;;;;;;4.68;1.02;;;1.50;64.00;;;;;;4971063;28;20047;-64
2023/03/11 05:30:09;;;;;;;5.63;1.00;;;1.40;64.50;;;;;;4976383;28;20177;-63
2023/03/11 05:32:35;;;;;;;4.95;1.35;;;1.30;64.70;;;;;;4973983;28;20465;-64
2023/03/11 05:35:01;;;;;;;4.25;0.57;;;1.20;65.10;;;;;;4985609;28;20050;-64
2023/03/11 05:37:29;;;;;;;7.03;1.00;;;1.10;64.80;;;;;;4975997;28;20059;-63
2023/03/11 05:39:55;;;;;;;8.10;1.00;;;0.90;67.50;;;;;;4968667;28;20038;-64
2023/03/11 05:42:21;;;;;;;4.68;0.73;;;0.70;70.70;;;;;;4976694;28;20043;-64
2023/03/11 05:44:46;;;;;;;9.18;0.95;;;0.50;74.90;;;;;;4968714;28;20051;-64
2023/03/11 05:47:12;;;;;;;3.15;0.73;;;0.40;77.60;;;;;;4967781;28;20039;-63
2023/03/11 05:49:38;;;;;;;8.35;0.82;;;0.20;83.30;;;;;;4968911;28;20047;-64
2023/03/11 05:52:03;;;;;;;9.05;1.10;;;0.20;83.30;;;;;;4975600;28;20062;-63
2023/03/11 05:54:29;;;;;;;2.67;0.90;;;0.00;84.90;;;;;;4967778;28;20043;-63
2023/03/11 05:56:55;;;;;;;6.45;1.33;;;0.00;87.30;;;;;;4968518;28;20038;-63
2023/03/11 05:59:21;;;;;;;3.42;0.73;;;-0.10;89.00;;;;;;4975110;28;20515;-63
2023/03/11 06:01:46;;;;;;;5.88;0.73;;;-0.20;88.60;;;;;;4973382;28;20084;-63
2023/03/11 06:04:12;;;;;;;3.85;0.90;;;-0.20;90.20;;;;;;4976959;28;20047;-63
2023/03/11 06:06:42;;;;;;;4.30;0.85;;;-0.30;90.40;;;;;;4968896;28;20055;-63
2023/03/11 06:09:13;;;;;;;7.40;0.80;;;-0.30;90.50;;;;;;4967963;28;20757;-63
2023/03/11 06:11:38;;;;;;;6.10;0.75;;;-0.30;90.40;;;;;;4967763;28;20049;-63
2023/03/11 06:14:04;;;;;;;5.13;0.60;;;-0.30;90.70;;;;;;4966754;28;20405;-63
2023/03/11 06:16:30;;;;;;;4.68;0.95;;;-0.30;90.60;;;;;;4965439;28;20047;-63
2023/03/11 06:18:56;;;;;;;14.73;1.13;;;-0.30;91.00;;;;;;4968208;28;20400;-63
2023/03/11 06:21:23;;;;;;;5.22;0.85;;;-0.30;91.50;;;;;;4966772;28;20089;-63
2023/03/11 06:23:50;;;;;;;6.85;0.80;;;-0.30;91.90;;;;;;4971005;28;20109;-63
2023/03/11 06:26:19;;;;;;;8.95;1.77;;;-0.30;92.20;;;;;;4967684;28;20043;-63
2023/03/11 06:28:45;;;;;;;12.05;1.25;;;-0.30;92.60;;;;;;4971593;28;20401;-63
2023/03/11 06:31:25;;;;;;;7.32;1.10;;;-0.30;93.10;;;;;;4988281;28;20134;-63
2023/03/11 06:33:52;;;;;;;5.43;0.90;;;-0.30;93.60;;;;;;4990193;28;20572;-63
2023/03/11 06:36:19;;;;;;;15.93;1.30;;;-0.20;93.90;;;;;;4996405;28;20042;-63
2023/03/11 06:38:45;;;;;;;3.35;0.63;;;-0.20;93.70;;;;;;4972214;28;20065;-63
2023/03/11 06:41:11;;;;;;;8.07;0.90;;;-0.20;93.80;;;;;;4990595;28;20042;-63
2023/03/11 06:43:38;;;;;;;5.18;1.02;;;0.00;94.00;;;;;;4990875;28;20038;-63
2023/03/11 06:46:12;;;;;;;6.57;0.80;;;0.00;93.80;;;;;;4990327;28;20141;-63
2023/03/11 06:48:38;;;;;;;4.28;0.80;;;0.20;93.00;;;;;;4990731;28;20054;-63
2023/03/11 06:51:04;;;;;;;5.05;1.00;;;0.20;92.70;;;;;;4998782;28;20391;-63
2023/03/11 06:53:30;;;;;;;4.00;0.73;;;0.20;92.20;;;;;;4988035;28;20042;-63
2023/03/11 06:56:07;;;;;;;4.20;0.47;;;0.30;92.10;;;;;;5005460;28;20558;-63
2023/03/11 06:58:35;;;;;;;2.63;0.57;;;0.30;92.20;;;;;;5002018;28;20050;-63
2023/03/11 07:01:03;;;;;;;6.78;0.70;;;0.30;92.20;;;;;;4973779;28;20093;-62
2023/03/11 07:03:29;;;;;;;2.67;0.65;;;0.40;92.60;;;;;;5002332;28;20039;-63
2023/03/11 07:05:57;;;;;;;4.82;1.00;;;0.50;92.60;;;;;;4980860;28;20065;-63
2023/03/11 07:08:24;;;;;;;7.65;0.85;;;0.60;92.30;;;;;;5002606;28;20557;-64
2023/03/11 07:11:04;;;;;;;6.20;0.82;;;0.60;91.40;;;;;;4976947;28;20130;-63
2023/03/11 07:13:30;;;;;;;5.50;1.08;;;0.70;90.20;;;;;;4972179;28;20508;-63
2023/03/11 07:16:05;;;;;;;1.70;0.80;;;0.70;89.70;;;;;;4990648;28;20089;-63
2023/03/11 07:18:32;;;;;;;2.72;0.65;;;0.80;90.20;;;;;;4996949;28;20046;-63
2023/03/11 07:20:57;;;;;;;10.48;0.82;;;0.90;90.40;;;;;;4989297;28;20042;-63
2023/03/11 07:23:23;;;;;;;8.15;1.17;;;0.90;90.20;;;;;;4990754;28;20046;-64
2023/03/11 07:25:51;;;;;;;2.33;0.52;;;1.00;90.10;;;;;;4988704;28;20477;-63
2023/03/11 07:28:17;;;;;;;5.95;0.80;;;1.00;89.50;;;;;;4979929;28;20077;-64
2023/03/11 07:30:45;;;;;;;8.23;1.23;;;1.10;89.50;;;;;;4988358;28;20104;-64
2023/03/11 07:33:11;;;;;;;3.45;0.80;;;1.10;89.00;;;;;;4997404;28;20112;-64
2023/03/11 07:35:37;;;;;;;3.45;0.70;;;1.20;86.30;;;;;;4996500;28;20053;-64
2023/03/11 07:38:03;;;;;;;5.88;0.90;;;1.20;86.70;;;;;;4997484;28;20038;-65
2023/03/11 07:40:29;;;;;;;4.80;1.13;;;1.20;85.60;;;;;;4997648;28;20126;-64
2023/03/11 07:42:55;;;;;;;1.10;0.50;;;1.30;86.50;;;;;;4992448;28;20133;-64
2023/03/11 07:45:22;;;;;;;7.75;1.08;;;1.30;86.60;;;;;;4997203;28;20439;-64
2023/03/11 07:47:48;;;;;;;5.93;1.00;;;1.40;86.30;;;;;;4992207;28;20474;-65
2023/03/11 07:50:15;;;;;;;8.30;1.65;;;1.40;87.70;;;;;;4973988;28;20049;-65
2023/03/11 07:52:42;;;;;;;6.85;0.98;;;1.50;88.00;;;;;;4971380;28;20250;-65
2023/03/11 07:55:08;;;;;;;9.65;0.93;;;1.50;89.20;;;;;;4992098;28;20397;-65
2023/03/11 07:57:34;;;;;;;7.07;0.70;;;1.60;88.10;;;;;;4972893;28;20493;-65
2023/03/11 07:59:59;;;;;;;7.50;0.73;;;1.60;87.30;;;;;;4971725;28;20100;-65
2023/03/11 08:02:25;;;;;;;4.13;0.98;;;1.70;86.80;;;;;;4996118;28;20049;-65
2023/03/11 08:04:51;;;;;;;7.75;1.20;;;1.70;85.90;;;;;;4993925;28;20226;-65
2023/03/11 08:07:17;;;;;;;4.38;0.95;;;1.80;86.30;;;;;;4988727;28;20117;-65
2023/03/11 08:09:43;;;;;;;7.10;0.85;;;1.90;85.80;;;;;;4995644;28;20482;-65
2023/03/11 08:12:09;;;;;;;5.53;1.00;;;2.00;86.30;;;;;;4964480;28;20085;-65
2023/03/11 08:14:34;;;;;;;10.75;1.10;;;2.10;88.30;;;;;;5006468;28;20049;-65
2023/03/11 08:17:00;;;;;;;6.32;1.20;;;2.20;90.30;;;;;;4996727;28;20508;-64
2023/03/11 08:19:26;;;;;;;6.15;1.10;;;2.30;90.30;;;;;;4984219;28;20054;-65
2023/03/11 08:21:51;;;;;;;5.15;1.20;;;2.40;89.90;;;;;;4979111;28;20059;-65
2023/03/11 08:24:17;;;;;;;7.95;0.93;;;2.50;89.70;;;;;;4996032;28;20492;-65
2023/03/11 08:26:43;;;;;;;8.40;1.30;;;2.60;90.00;;;;;;4969996;28;20120;-64
2023/03/11 08:29:09;;;;;;;5.28;0.57;;;2.70;87.90;;;;;;4999423;28;20057;-65
2023/03/11 08:31:35;;;;;;;7.10;1.10;;;2.70;86.00;;;;;;5002123;28;20137;-65
2023/03/11 08:34:04;;;;;;;12.60;0.90;;;2.80;84.10;;;;;;4989871;28;20590;-65
2023/03/11 08:36:30;;;;;;;3.00;0.70;;;2.80;83.90;;;;;;4994169;28;20052;-65
2023/03/11 08:38:57;;;;;;;10.00;1.02;;;2.80;85.20;;;;;;4975915;28;20050;-65
2023/03/11 08:41:23;;;;;;;10.85;1.67;;;2.80;83.00;;;;;;4995047;28;20485;-65
2023/03/11 08:43:51;;;;;;;13.13;1.50;;;2.90;85.70;;;;;;4999976;28;20077;-65
2023/03/11 08:46:33;;;;;;;11.75;1.23;;;3.00;88.40;;;;;;4994437;28;20626;-65
2023/03/11 08:48:59;;;;;;;7.53;1.38;;;3.10;87.00;;;;;;4990110;28;20404;-65
2023/03/11 08:51:29;;;;;;;15.68;1.75;;;3.20;87.00;;;;;;4989976;28;20074;-65
2023/03/11 08:53:55;;;;;;;5.47;0.80;;;3.40;86.10;;;;;;4996210;28;20412;-65
2023/03/11 08:56:21;;;;;;;12.57;1.55;;;3.40;83.10;;;;;;4974872;28;20125;-65
2023/03/11 08:58:47;;;;;;;7.20;1.40;;;3.40;82.60;;;;;;4997712;28;20125;-65
2023/03/11 09:01:12;;;;;;;9.27;1.52;;;3.50;84.10;;;;;;4972147;28;20045;-65
2023/03/11 09:03:39;;;;;;;5.32;1.20;;;3.50;83.10;;;;;;4975321;28;20054;-64
2023/03/11 09:06:08;;;;;;;5.60;1.30;;;3.50;83.60;;;;;;4992950;28;20484;-64
2023/03/11 09:08:34;;;;;;;3.10;1.10;;;3.60;82.10;;;;;;4995265;28;20057;-64
2023/03/11 09:11:00;;;;;;;4.93;1.52;;;3.60;81.80;;;;;;4971096;28;20042;-64
2023/03/11 09:13:27;;;;;;;7.72;1.00;;;3.60;82.20;;;;;;4986403;28;20117;-64
2023/03/11 09:15:53;;;;;;;8.32;0.95;;;3.70;83.20;;;;;;5000913;28;20088;-64
2023/03/11 09:18:19;;;;;;;4.20;0.63;;;3.80;85.40;;;;;;4986781;28;20040;-64
2023/03/11 09:20:45;;;;;;;2.20;0.47;;;3.80;83.50;;;;;;4988314;28;20061;-64
2023/03/11 09:23:14;;;;;;;8.02;1.45;;;3.80;81.90;;;;;;4986070;28;20042;-64
2023/03/11 09:25:40;;;;;;;0.63;0.32;;;3.90;84.10;;;;;;4982697;28;20045;-64
2023/03/11 09:28:06;;;;;;;5.85;0.82;;;4.00;84.60;;;;;;4973614;28;20044;-64
2023/03/11 09:30:32;;;;;;;1.75;0.50;;;4.10;82.10;;;;;;4995769;28;20090;-64
2023/03/11 09:32:58;;;;;;;1.58;0.43;;;4.10;80.30;;;;;;4989175;28;20116;-64
2023/03/11 09:35:23;;;;;;;4.35;0.70;;;4.10;80.60;;;;;;4968360;28;20544;-67
2023/03/11 09:37:49;;;;;;;7.07;1.10;;;4.10;78.50;;;;;;4994137;28;20042;-67
2023/03/11 09:40:18;;;;;;;9.88;1.50;;;4.10;80.20;;;;;;5001563;28;20104;-67
2023/03/11 09:42:44;;;;;;;6.05;0.90;;;4.20;80.90;;;;;;4975038;28;20140;-66
2023/03/11 09:45:25;;;;;;;11.70;1.13;;;4.20;82.10;;;;;;4975504;28;20133;-67
2023/03/11 09:48:16;;;;;;;3.35;1.17;;;4.20;80.70;;;;;;4969895;28;20040;-65
2023/03/11 09:50:56;;;;;;;2.47;1.17;;;4.30;82.10;;;;;;4986720;28;20192;-64
2023/03/11 09:53:41;;;;;;;3.03;1.10;;;4.40;77.80;;;;;;4991653;28;20054;-64
2023/03/11 09:56:14;;;;;;;10.20;1.25;;;4.40;77.30;;;;;;4992360;28;20057;-64
2023/03/11 09:58:45;;;;;;;5.28;1.05;;;4.60;82.00;;;;;;4980341;28;20089;-64
2023/03/11 10:01:26;;;;;;;8.13;1.13;;;4.70;82.00;;;;;;4972596;28;20101;-64
2023/03/11 10:03:56;;;;;;;10.07;1.30;;;4.80;78.20;;;;;;4973561;28;20054;-64
2023/03/11 10:06:24;;;;;;;2.67;1.20;;;4.80;76.40;;;;;;4972329;28;20054;-65
2023/03/11 10:09:33;;;;;;;1.27;0.70;;;4.90;78.50;;;;;;4974034;28;20408;-64
2023/03/11 10:11:58;;;;;;;4.65;1.20;;;4.90;80.70;;;;;;4991575;28;20124;-64
2023/03/11 10:14:43;;;;;;;5.22;1.30;;;4.90;76.80;;;;;;4988717;28;20501;-64
2023/03/11 10:17:24;;;;;;;7.65;1.23;;;4.90;75.30;;;;;;4989078;28;20073;-65
2023/03/11 10:20:09;;;;;;;7.32;1.00;;;5.00;76.50;;;;;;4986967;28;20141;-64
2023/03/11 10:22:54;;;;;;;7.55;1.17;;;5.00;76.20;;;;;;4989460;28;20042;-65
2023/03/11 10:25:22;;;;;;;4.78;0.93;;;5.10;72.60;;;;;;4980323;28;20058;-65
2023/03/11 10:28:09;;;;;;;6.40;1.63;;;5.10;70.90;;;;;;4990830;28;20489;-65
2023/03/11 10:30:45;;;;;;;6.78;1.90;;;5.10;69.50;;;;;;4989572;28;20058;-64
2023/03/11 10:33:40;;;;;;;3.05;0.52;;;5.10;68.00;;;;;;4992065;28;20042;-64
2023/03/11 10:36:13;;;;;;;6.10;1.25;;;5.10;68.70;;;;;;4980465;28;20476;-64
2023/03/11 10:38:45;;;;;;;6.03;1.15;;;5.20;72.00;;;;;;5002688;28;20327;-64
2023/03/11 10:41:35;;;;;;;6.03;1.17;;;5.40;75.40;;;;;;4990626;28;20370;-64
2023/03/11 10:44:12;;;;;;;2.53;0.60;;;5.50;70.90;;;;;;4990156;28;20038;-64
2023/03/11 10:46:37;;;;;;;6.50;1.13;;;5.60;70.80;;;;;;4990399;28;20294;-64
2023/03/11 10:49:12;;;;;;;8.85;0.93;;;5.70;70.30;;;;;;4991715;28;20097;-64
2023/03/11 10:51:38;;;;;;;6.07;1.05;;;5.70;67.90;;;;;;4990514;28;20096;-63
2023/03/11 10:54:04;;;;;;;14.45;1.23;;;5.60;66.30;;;;;;4990068;28;20042;-63
2023/03/11 10:56:35;;;;;;;1.00;0.28;;;5.70;69.60;;;;;;4982788;28;20109;-64
2023/03/11 10:59:03;;;;;;;4.53;1.10;;;5.80;70.70;;;;;;4991239;28;20378;-64
2023/03/11 11:01:29;;;;;;;8.48;1.13;;;5.80;71.70;;;;;;4998845;28;20054;-64
2023/03/11 11:03:59;;;;;;;8.85;0.93;;;5.90;67.90;;;;;;4991422;28;20030;-63
2023/03/11 11:06:35;;;;;;;5.68;0.85;;;6.00;72.10;;;;;;4989247;28;20429;-63
2023/03/11 11:09:18;;;;;;;6.75;1.02;;;6.00;68.20;;;;;;4973290;28;20105;-63
2023/03/11 11:12:00;;;;;;;1.25;0.77;;;5.90;68.30;;;;;;4990387;28;20137;-63
2023/03/11 11:14:44;;;;;;;9.13;1.35;;;6.00;65.70;;;;;;4954091;28;20732;-64
2023/03/11 11:17:33;;;;;;;2.10;0.80;;;6.00;68.80;;;;;;4990616;28;20526;-63
2023/03/11 11:20:11;;;;;;;12.93;1.20;;;6.00;68.70;;;;;;4981458;28;20077;-63
2023/03/11 11:22:38;;;;;;;2.60;0.70;;;6.00;66.80;;;;;;4989896;28;20524;-63
2023/03/11 11:25:26;;;;;;;3.75;1.42;;;6.10;67.90;;;;;;4973055;28;20133;-63
2023/03/11 11:28:16;;;;;;;1.10;0.35;;;6.20;65.30;;;;;;4983532;28;20552;-63
2023/03/11 11:31:22;;;;;;;2.43;0.70;;;6.30;67.00;;;;;;4989581;28;20058;-63
2023/03/11 11:33:51;;;;;;;1.88;0.47;;;6.40;67.20;;;;;;4972303;28;20050;-63
2023/03/11 11:36:19;;;;;;;11.68;0.85;;;6.40;64.20;;;;;;4972627;28;20053;-63
2023/03/11 11:38:44;;;;;;;1.25;0.30;;;6.40;64.80;;;;;;4991752;28;20049;-63
2023/03/11 11:41:17;;;;;;;5.20;1.00;;;6.50;62.50;;;;;;4994130;28;20050;-63
2023/03/11 11:43:52;;;;;;;10.25;0.80;;;6.50;70.80;;;;;;4967560;28;20105;-63
2023/03/11 11:46:40;;;;;;;1.02;0.22;;;6.70;68.00;;;;;;4989593;28;20053;-63
2023/03/11 11:49:26;;;;;;;7.72;1.00;;;6.60;60.90;;;;;;4979807;28;20064;-62
2023/03/11 11:52:11;;;;;;;3.70;0.52;;;6.70;65.00;;;;;;4974213;28;20446;-63
2023/03/11 11:54:58;;;;;;;1.85;0.57;;;6.80;60.90;;;;;;4988651;28;20408;-63
2023/03/11 11:57:24;;;;;;;1.27;0.55;;;6.70;59.70;;;;;;4977790;28;20042;-63
2023/03/11 11:59:49;;;;;;;2.63;0.47;;;6.70;59.80;;;;;;4989307;28;20046;-63
2023/03/11 12:02:18;;;;;;;2.72;0.22;;;6.80;61.60;;;;;;4988455;28;20035;-63
2023/03/11 12:04:49;;;;;;;4.97;0.90;;;6.90;57.20;;;;;;4989302;28;20050;-62
2023/03/11 12:07:46;;;;;;;4.63;0.52;;;6.80;53.80;;;;;;4970625;28;20528;-62
2023/03/11 12:10:32;;;;;;;3.70;1.52;;;6.90;54.10;;;;;;4988273;28;20058;-62
2023/03/11 12:13:32;;;;;;;5.22;1.02;;;6.90;54.80;;;;;;4990296;28;20432;-62
2023/03/11 12:16:01;;;;;;;4.60;1.33;;;7.10;52.40;;;;;;4945437;28;20121;-62
2023/03/11 12:18:48;;;;;;;1.45;0.45;;;7.20;63.00;;;;;;4979833;28;20048;-63
2023/03/11 12:21:37;;;;;;;3.33;0.65;;;7.10;56.60;;;;;;4991587;28;20046;-62
2023/03/11 12:24:20;;;;;;;0.68;0.25;;;7.20;50.90;;;;;;4988466;28;20046;-62
2023/03/11 12:26:48;;;;;;;4.90;0.73;;;7.20;52.10;;;;;;4988586;28;20390;-63
2023/03/11 12:29:38;;;;;;;0.70;0.30;;;7.30;54.60;;;;;;4970997;28;20058;-62
2023/03/11 12:32:05;;;;;;;5.40;1.23;;;7.30;53.50;;;;;;4994606;28;20113;-62
2023/03/11 12:34:34;;;;;;;3.20;0.28;;;7.20;56.00;;;;;;4997404;28;20571;-62
2023/03/11 12:37:04;;;;;;;3.00;0.43;;;7.20;52.70;;;;;;4987244;28;20053;-62
2023/03/11 12:39:33;;;;;;;6.55;0.90;;;7.20;49.20;;;;;;4989046;28;20465;-62
2023/03/11 12:42:16;;;;;;;0.20;0.20;;;7.20;52.20;;;;;;4987652;28;20456;-62
2023/03/11 12:44:43;;;;;;;5.18;1.10;;;7.40;56.20;;;;;;4987369;28;20049;-62
2023/03/11 12:47:12;;;;;;;1.35;0.30;;;7.20;52.50;;;;;;4971430;28;20046;-62
2023/03/11 12:49:45;;;;;;;0.47;0.40;;;7.00;51.40;;;;;;4987105;28;20511;-62
2023/03/11 12:52:11;;;;;;;2.95;0.90;;;6.90;53.30;;;;;;4988659;28;20046;-62
2023/03/11 12:54:45;;;;;;;7.80;0.90;;;7.00;53.50;;;;;;4987253;28;20046;-62
2023/03/11 12:57:17;;;;;;;3.95;0.50;;;7.20;56.70;;;;;;4970967;28;20053;-62
2023/03/11 12:59:54;;;;;;;3.67;0.73;;;7.10;52.90;;;;;;4979974;28;20047;-62
2023/03/11 13:02:42;;;;;;;1.98;0.73;;;6.90;53.50;;;;;;4993285;28;20038;-62
2023/03/11 13:05:13;;;;;;;1.52;0.28;;;7.10;50.40;;;;;;4988953;28;20046;-61
2023/03/11 13:07:50;;;;;;;3.38;0.43;;;7.10;56.10;;;;;;4999079;28;20082;-62